Time;durP1;ratioP1;P1;durP2;ratioP2;P2;SDS_P1;SDS_P2;PMS_P1;PMS_P2;Temp;Humidity;BMP_temperature;BMP_pressure;BME280_temperature;BME280_humidity;BME280_pressure;Samples;Min_cycle;Max_cycle;Signal;HPM_P1;HPM_P2
2021/03/31 00:02:07;;;;;;;10.63;7.13;;;;;;;14.68;46.95;97304.91;5118473;27;20188;-69
2021/03/31 00:04:32;;;;;;;9.47;7.10;;;;;;;14.69;46.48;97303.06;5114997;28;20661;-69
2021/03/31 00:06:57;;;;;;;8.90;7.00;;;;;;;14.68;46.16;97301.44;5114449;28;20410;-70
2021/03/31 00:09:23;;;;;;;9.40;7.10;;;;;;;14.71;46.78;97301.78;5118241;27;20188;-70
2021/03/31 00:11:48;;;;;;;9.13;6.80;;;;;;;14.70;46.35;97299.38;5131644;27;20173;-70
2021/03/31 00:14:15;;;;;;;12.10;7.60;;;;;;;14.62;46.10;97297.06;5134049;27;20245;-70
2021/03/31 00:16:41;;;;;;;8.83;6.60;;;;;;;14.59;46.47;97295.69;5128126;27;20208;-70
2021/03/31 00:19:06;;;;;;;10.90;7.53;;;;;;;14.59;46.59;97297.50;5132559;27;20466;-70
2021/03/31 00:21:32;;;;;;;9.20;7.43;;;;;;;14.58;46.08;97298.56;5127302;27;20679;-70
2021/03/31 00:23:57;;;;;;;8.80;7.20;;;;;;;14.54;46.65;97289.47;5114425;28;20176;-70
2021/03/31 00:26:22;;;;;;;11.47;7.40;;;;;;;14.53;46.88;97290.50;5126768;27;20284;-70
2021/03/31 00:28:48;;;;;;;10.43;7.37;;;;;;;14.48;47.17;97288.53;5113891;28;20193;-71
2021/03/31 00:31:13;;;;;;;9.00;7.37;;;;;;;14.41;46.73;97293.09;5115585;27;20178;-70
2021/03/31 00:33:39;;;;;;;11.30;8.10;;;;;;;14.44;46.90;97280.25;5114408;28;20162;-70
2021/03/31 00:36:05;;;;;;;9.17;8.23;;;;;;;14.54;46.56;97276.22;5128713;27;20645;-70
2021/03/31 00:38:31;;;;;;;11.83;7.40;;;;;;;14.37;47.45;97281.38;5121509;27;20201;-69
2021/03/31 00:40:57;;;;;;;11.93;8.63;;;;;;;14.40;46.68;97283.56;5132760;27;20905;-69
2021/03/31 00:43:22;;;;;;;10.50;8.30;;;;;;;14.34;47.25;97287.94;5134802;27;20168;-70
2021/03/31 00:45:48;;;;;;;9.23;7.47;;;;;;;14.33;47.52;97285.53;5134346;27;20446;-71
2021/03/31 00:48:15;;;;;;;9.60;7.17;;;;;;;14.04;48.16;97279.16;5132580;27;20200;-70
2021/03/31 00:50:43;;;;;;;11.10;7.10;;;;;;;14.08;47.88;97274.25;5126404;27;20179;-71
2021/03/31 00:53:09;;;;;;;9.07;7.07;;;;;;;14.08;48.38;97280.34;5133567;27;20423;-69
2021/03/31 00:55:35;;;;;;;10.30;7.17;;;;;;;14.08;47.70;97279.53;5120564;27;20825;-70
2021/03/31 00:58:01;;;;;;;9.23;7.47;;;;;;;14.12;48.39;97276.22;5129609;27;20463;-71
2021/03/31 01:00:26;;;;;;;7.83;7.03;;;;;;;14.18;48.09;97270.03;5131832;27;20410;-70
2021/03/31 01:02:52;;;;;;;12.57;7.93;;;;;;;14.06;48.11;97274.47;5114643;28;20556;-70
2021/03/31 01:05:21;;;;;;;8.53;7.67;;;;;;;14.06;47.95;97276.28;5114591;27;20204;-69
2021/03/31 01:07:47;;;;;;;9.90;6.73;;;;;;;13.99;47.99;97272.94;5113239;28;20170;-69
2021/03/31 01:10:15;;;;;;;8.10;7.30;;;;;;;13.97;48.03;97265.25;5129123;28;20781;-70
2021/03/31 01:12:47;;;;;;;9.90;7.17;;;;;;;13.98;47.97;97260.78;5133516;27;20536;-69
2021/03/31 01:15:26;;;;;;;8.30;6.47;;;;;;;13.88;48.69;97260.47;5129969;27;20913;-69
2021/03/31 01:18:09;;;;;;;7.63;6.30;;;;;;;13.84;49.44;97257.47;5112929;28;20786;-70
2021/03/31 01:20:56;;;;;;;9.10;6.63;;;;;;;13.95;48.80;97258.59;5115620;28;20903;-69
2021/03/31 01:23:42;;;;;;;8.10;7.13;;;;;;;13.90;48.92;97256.59;5134034;27;20490;-70
2021/03/31 01:26:16;;;;;;;10.17;6.87;;;;;;;13.93;48.29;97258.78;5129118;27;20801;-69
2021/03/31 01:29:10;;;;;;;10.90;7.23;;;;;;;13.94;48.13;97249.84;5113225;28;20483;-69
2021/03/31 01:31:45;;;;;;;11.47;8.40;;;;;;;13.90;47.51;97256.59;5114789;28;20426;-70
2021/03/31 01:34:36;;;;;;;10.70;7.73;;;;;;;13.91;48.10;97249.50;5121613;28;20474;-70
2021/03/31 01:37:09;;;;;;;10.00;7.87;;;;;;;13.94;48.06;97247.19;5120807;27;20407;-70
2021/03/31 01:39:38;;;;;;;9.43;7.30;;;;;;;13.96;47.63;97244.34;5118702;27;20447;-69
2021/03/31 01:42:05;;;;;;;10.70;7.50;;;;;;;13.92;47.53;97241.34;5118807;27;20438;-69
2021/03/31 01:44:31;;;;;;;8.60;7.53;;;;;;;13.94;47.65;97234.00;5125396;27;20530;-70
2021/03/31 01:46:58;;;;;;;11.70;7.80;;;;;;;13.94;47.53;97234.00;5121516;27;20926;-69
2021/03/31 01:49:26;;;;;;;11.80;8.10;;;;;;;13.93;47.42;97231.59;5136998;27;20240;-70
2021/03/31 01:51:58;;;;;;;9.43;7.07;;;;;;;13.95;47.25;97230.31;5138034;27;20394;-69
2021/03/31 01:54:26;;;;;;;11.10;7.73;;;;;;;13.90;47.14;97234.66;5136257;27;20430;-69
2021/03/31 01:56:53;;;;;;;9.93;7.60;;;;;;;13.76;48.16;97223.47;5125794;27;20425;-70
2021/03/31 01:59:19;;;;;;;9.50;7.33;;;;;;;13.77;46.99;97219.78;5137621;27;20450;-70
2021/03/31 02:01:47;;;;;;;11.60;8.03;;;;;;;13.78;47.95;97221.41;5127584;27;20418;-70
2021/03/31 02:04:14;;;;;;;9.50;7.20;;;;;;;13.74;47.51;97219.44;5137712;27;20406;-70
2021/03/31 02:06:42;;;;;;;9.50;7.47;;;;;;;13.74;47.67;97217.59;5136521;27;20423;-69
2021/03/31 02:09:08;;;;;;;8.00;7.03;;;;;;;13.77;47.44;97219.78;5136114;27;20491;-69
2021/03/31 02:11:33;;;;;;;9.43;8.27;;;;;;;13.77;47.34;97222.44;5134829;27;20784;-70
2021/03/31 02:14:01;;;;;;;11.07;6.77;;;;;;;13.81;47.69;97215.69;5117984;27;20430;-70
2021/03/31 02:16:30;;;;;;;10.53;7.67;;;;;;;13.84;48.51;97215.22;5117112;28;20174;-70
2021/03/31 02:18:58;;;;;;;9.30;7.10;;;;;;;13.75;48.54;97211.28;5130461;27;20445;-70
2021/03/31 02:21:23;;;;;;;8.20;7.33;;;;;;;13.64;48.83;97208.63;5137505;27;20902;-70
2021/03/31 02:23:50;;;;;;;12.40;7.30;;;;;;;13.56;48.66;97203.63;5137166;27;20429;-70
2021/03/31 02:26:16;;;;;;;10.17;7.53;;;;;;;13.63;48.45;97204.34;5129097;27;20205;-70
2021/03/31 02:28:43;;;;;;;11.20;7.83;;;;;;;13.60;48.49;97202.16;5117476;27;20446;-69
2021/03/31 02:31:08;;;;;;;10.83;7.53;;;;;;;13.53;48.50;97202.25;5117624;27;20391;-69
2021/03/31 02:33:35;;;;;;;10.10;7.60;;;;;;;13.59;49.40;97203.19;5116640;28;20430;-69
2021/03/31 02:36:01;;;;;;;10.90;7.97;;;;;;;13.54;49.22;97198.56;5132372;27;20204;-69
2021/03/31 02:38:29;;;;;;;11.83;7.43;;;;;;;13.48;48.27;97194.19;5136025;27;20481;-70
2021/03/31 02:40:56;;;;;;;9.97;7.63;;;;;;;13.42;49.28;97195.88;5119904;27;20451;-70
2021/03/31 02:43:24;;;;;;;11.27;7.43;;;;;;;13.49;48.54;97189.72;5116529;27;20408;-70
2021/03/31 02:45:55;;;;;;;10.00;7.33;;;;;;;13.43;49.22;97186.13;5118113;27;20446;-70
2021/03/31 02:48:23;;;;;;;13.97;7.37;;;;;;;13.38;49.02;97188.63;5126949;27;20451;-70
2021/03/31 02:50:49;;;;;;;8.40;6.37;;;;;;;13.29;49.14;97185.50;5117171;27;20419;-70
2021/03/31 02:53:16;;;;;;;12.13;7.27;;;;;;;13.29;48.59;97184.69;5116247;27;20768;-69
2021/03/31 02:55:41;;;;;;;11.07;7.60;;;;;;;13.30;49.00;97188.91;5121997;27;20218;-70
2021/03/31 02:58:09;;;;;;;11.07;6.90;;;;;;;13.28;48.64;97180.41;5121983;27;20410;-70
2021/03/31 03:00:35;;;;;;;9.10;6.40;;;;;;;13.18;48.94;97188.88;5118739;27;20184;-69
2021/03/31 03:03:02;;;;;;;7.93;6.63;;;;;;;13.17;49.21;97181.97;5133975;27;20415;-68
2021/03/31 03:05:29;;;;;;;10.30;6.70;;;;;;;13.06;49.61;97174.78;5124824;27;20204;-70
2021/03/31 03:07:54;;;;;;;11.00;6.90;;;;;;;13.10;49.42;97181.25;5115467;28;20407;-70
2021/03/31 03:10:20;;;;;;;11.03;7.23;;;;;;;13.08;49.77;97172.75;5118627;27;20481;-68
2021/03/31 03:12:53;;;;;;;9.47;6.73;;;;;;;13.10;50.24;97165.41;5126559;27;20177;-70
2021/03/31 03:15:22;;;;;;;11.73;7.70;;;;;;;13.05;50.27;97170.56;5125343;27;20751;-70
2021/03/31 03:17:47;;;;;;;10.17;6.90;;;;;;;13.00;50.01;97164.31;5115375;27;20418;-71
2021/03/31 03:20:13;;;;;;;10.30;7.40;;;;;;;12.93;50.16;97168.84;5118426;27;20443;-70
2021/03/31 03:22:42;;;;;;;11.80;7.23;;;;;;;12.92;51.36;97172.50;5115587;28;20248;-70
2021/03/31 03:25:10;;;;;;;12.77;7.80;;;;;;;13.00;50.25;97167.75;5116455;27;20966;-70
2021/03/31 03:27:39;;;;;;;7.47;6.33;;;;;;;13.02;50.55;97167.53;5127935;27;20426;-69
2021/03/31 03:30:09;;;;;;;8.53;7.00;;;;;;;13.02;50.22;97167.53;5135972;27;20832;-70
2021/03/31 03:32:35;;;;;;;10.80;7.93;;;;;;;13.07;50.31;97175.59;5135762;27;20407;-70
2021/03/31 03:35:02;;;;;;;11.53;7.40;;;;;;;13.08;49.82;97174.59;5134648;27;20502;-69
2021/03/31 03:37:27;;;;;;;10.47;8.40;;;;;;;13.03;49.85;97169.16;5133346;27;20419;-70
2021/03/31 03:39:53;;;;;;;8.50;7.07;;;;;;;13.04;50.67;97170.78;5133869;27;20445;-70
2021/03/31 03:42:19;;;;;;;8.80;7.90;;;;;;;13.02;50.73;97172.81;5135901;27;20525;-70
2021/03/31 03:44:44;;;;;;;9.30;7.60;;;;;;;13.05;49.91;97164.47;5135467;27;20220;-69
2021/03/31 03:47:10;;;;;;;12.87;8.10;;;;;;;12.96;49.94;97166.56;5135304;27;20191;-70
2021/03/31 03:49:39;;;;;;;9.00;7.37;;;;;;;13.04;50.57;97170.78;5122543;27;20197;-69
2021/03/31 03:52:06;;;;;;;10.77;7.80;;;;;;;12.97;50.91;97170.81;5116625;27;20189;-69
2021/03/31 03:54:32;;;;;;;14.20;8.13;;;;;;;13.06;50.94;97166.88;5132939;27;20414;-69
2021/03/31 03:56:57;;;;;;;9.00;7.23;;;;;;;13.08;50.85;97172.75;5125199;27;20421;-69
2021/03/31 03:59:24;;;;;;;10.10;7.97;;;;;;;13.03;50.87;97172.59;5125591;27;20287;-69
2021/03/31 04:01:51;;;;;;;9.93;6.90;;;;;;;12.95;51.15;97166.81;5135313;27;20169;-69
2021/03/31 04:04:21;;;;;;;10.63;7.00;;;;;;;12.86;50.67;97168.94;5133582;27;20402;-69
2021/03/31 04:06:47;;;;;;;10.07;7.80;;;;;;;12.96;50.26;97173.69;5125875;27;20434;-70
2021/03/31 04:09:13;;;;;;;12.43;8.07;;;;;;;12.91;50.10;97169.06;5121542;27;20441;-70
2021/03/31 04:11:41;;;;;;;10.47;7.50;;;;;;;12.92;50.31;97167.22;5134119;27;20503;-70
2021/03/31 04:14:07;;;;;;;11.00;8.10;;;;;;;12.93;50.74;97163.56;5133612;27;20467;-69
2021/03/31 04:16:33;;;;;;;9.20;7.10;;;;;;;12.86;51.26;97165.47;5135153;27;20399;-70
2021/03/31 04:19:05;;;;;;;10.67;7.93;;;;;;;12.67;51.62;97164.66;5134717;27;20782;-70
2021/03/31 04:21:33;;;;;;;12.60;7.60;;;;;;;12.71;51.73;97170.31;5134377;27;20448;-69
2021/03/31 04:23:59;;;;;;;10.80;8.20;;;;;;;12.76;51.51;97163.34;5134960;27;20874;-69
2021/03/31 04:26:26;;;;;;;10.30;7.80;;;;;;;12.60;51.80;97158.66;5135031;27;20499;-69
2021/03/31 04:28:53;;;;;;;12.63;8.47;;;;;;;12.45;51.70;97166.09;5125426;27;20427;-69
2021/03/31 04:31:22;;;;;;;11.03;7.93;;;;;;;12.54;52.25;97166.63;5114299;28;20400;-69
2021/03/31 04:33:50;;;;;;;11.63;8.20;;;;;;;12.59;52.52;97167.56;5114435;27;20395;-70
2021/03/31 04:36:17;;;;;;;8.63;7.83;;;;;;;12.50;53.02;97160.19;5114320;28;20399;-68
2021/03/31 04:38:46;;;;;;;10.00;7.37;;;;;;;12.50;53.14;97163.59;5113826;27;20840;-69
2021/03/31 04:41:12;;;;;;;9.80;7.30;;;;;;;12.43;52.72;97167.34;5114371;28;20399;-70
2021/03/31 04:43:38;;;;;;;12.23;7.63;;;;;;;12.40;52.90;97164.13;5121429;27;20441;-70
2021/03/31 04:46:05;;;;;;;9.83;7.50;;;;;;;12.38;52.63;97174.06;5133708;27;20197;-69
2021/03/31 04:48:31;;;;;;;10.70;7.53;;;;;;;12.34;53.34;97175.50;5113553;28;20216;-70
2021/03/31 04:50:56;;;;;;;10.70;7.67;;;;;;;12.47;52.67;97176.41;5114081;28;20412;-69
2021/03/31 04:53:23;;;;;;;11.13;7.67;;;;;;;12.25;53.54;97168.91;5114119;28;20771;-69
2021/03/31 04:55:49;;;;;;;9.80;8.10;;;;;;;12.34;53.29;97175.50;5113901;28;20660;-69
2021/03/31 04:58:15;;;;;;;10.80;8.10;;;;;;;12.39;53.59;97177.53;5114585;28;20453;-70
2021/03/31 05:00:40;;;;;;;8.27;7.40;;;;;;;12.49;53.17;97169.09;5121136;27;20410;-69
2021/03/31 05:03:06;;;;;;;10.67;7.80;;;;;;;12.59;53.21;97164.16;5129667;27;20213;-69
2021/03/31 05:05:32;;;;;;;9.13;7.50;;;;;;;12.41;54.21;97178.91;5113899;28;20194;-70
2021/03/31 05:07:58;;;;;;;15.43;8.37;;;;;;;12.49;53.42;97177.00;5130997;28;20989;-69
2021/03/31 05:10:25;;;;;;;8.93;7.50;;;;;;;12.31;54.70;97173.31;5133813;27;20248;-69
2021/03/31 05:12:50;;;;;;;11.60;8.37;;;;;;;12.39;53.82;97175.66;5134687;27;20600;-70
2021/03/31 05:15:16;;;;;;;13.70;8.40;;;;;;;12.39;53.63;97177.53;5126383;27;20442;-69
2021/03/31 05:17:42;;;;;;;11.97;7.70;;;;;;;12.29;54.47;97172.72;5114390;28;20196;-70
2021/03/31 05:20:08;;;;;;;10.73;7.50;;;;;;;12.45;53.34;97178.47;5113708;28;21001;-71
2021/03/31 05:22:33;;;;;;;12.30;8.37;;;;;;;12.49;54.02;97164.63;5113765;28;20605;-69
2021/03/31 05:24:59;;;;;;;12.83;8.30;;;;;;;12.49;54.03;97164.63;5113739;28;20200;-69
2021/03/31 05:27:24;;;;;;;11.30;6.97;;;;;;;12.47;52.88;97164.03;5113180;28;20174;-69
2021/03/31 05:29:50;;;;;;;12.90;7.87;;;;;;;12.46;53.41;97162.44;5127675;28;20207;-70
2021/03/31 05:32:15;;;;;;;12.33;8.37;;;;;;;12.55;52.94;97157.69;5132377;27;20165;-69
2021/03/31 05:34:41;;;;;;;12.40;8.30;;;;;;;12.61;53.40;97151.56;5113745;28;20177;-69
2021/03/31 05:37:07;;;;;;;11.00;8.27;;;;;;;12.74;52.56;97159.31;5113281;28;20180;-69
2021/03/31 05:39:32;;;;;;;12.93;9.07;;;;;;;12.79;52.54;97156.84;5113416;28;20207;-71
2021/03/31 05:41:59;;;;;;;12.47;8.33;;;;;;;12.84;52.97;97149.88;5113597;28;20888;-69
2021/03/31 05:44:25;;;;;;;12.33;8.27;;;;;;;12.89;52.57;97149.22;5127950;28;20180;-70
2021/03/31 05:46:51;;;;;;;14.87;10.67;;;;;;;12.95;52.03;97150.97;5133296;27;20449;-69
2021/03/31 05:49:16;;;;;;;15.47;11.30;;;;;;;12.92;51.48;97144.28;5113263;28;20688;-70
2021/03/31 05:51:42;;;;;;;20.80;10.10;;;;;;;12.78;48.80;97152.56;5113527;28;20414;-71
2021/03/31 05:54:08;;;;;;;16.73;10.00;;;;;;;12.81;49.00;97146.88;5113348;28;20188;-70
2021/03/31 05:56:34;;;;;;;15.53;8.80;;;;;;;13.03;48.95;97140.13;5121339;28;20161;-68
2021/03/31 05:59:06;;;;;;;11.10;8.53;;;;;;;13.22;49.09;97145.19;5112874;28;20661;-69
2021/03/31 06:01:32;;;;;;;11.77;9.03;;;;;;;13.28;48.22;97140.81;5113738;28;20197;-69
2021/03/31 06:03:58;;;;;;;12.10;9.13;;;;;;;13.39;48.69;97135.59;5113270;28;20423;-70
2021/03/31 06:06:25;;;;;;;12.70;8.20;;;;;;;13.40;47.31;97141.69;5113313;28;20454;-70
2021/03/31 06:08:51;;;;;;;12.93;8.97;;;;;;;13.52;47.56;97141.72;5131395;28;20429;-70
2021/03/31 06:11:20;;;;;;;11.53;8.20;;;;;;;13.64;47.69;97143.41;5132745;27;20437;-68
2021/03/31 06:14:02;;;;;;;10.80;8.30;;;;;;;13.68;46.91;97138.47;5133764;27;20794;-69
2021/03/31 06:16:33;;;;;;;9.67;8.10;;;;;;;13.76;47.73;97133.66;5134072;28;20394;-69
2021/03/31 06:19:18;;;;;;;11.40;8.10;;;;;;;13.96;48.01;97136.00;5133281;27;20928;-69
2021/03/31 06:22:05;;;;;;;9.50;7.80;;;;;;;13.90;47.36;97140.34;5133398;27;20419;-69
2021/03/31 06:24:32;;;;;;;10.33;8.40;;;;;;;14.00;46.70;97137.97;5136737;27;20409;-70
2021/03/31 06:26:58;;;;;;;10.83;8.10;;;;;;;14.04;46.28;97139.09;5130440;27;20443;-70
2021/03/31 06:29:23;;;;;;;10.67;7.83;;;;;;;14.09;46.63;97141.91;5116531;27;20497;-69
2021/03/31 06:31:49;;;;;;;9.70;7.47;;;;;;;14.26;46.44;97134.06;5116603;28;20550;-69
2021/03/31 06:34:21;;;;;;;10.13;8.10;;;;;;;14.33;45.80;97140.09;5116608;28;20220;-69
2021/03/31 06:36:51;;;;;;;13.33;8.70;;;;;;;14.53;45.97;97145.81;5116524;28;20399;-69
2021/03/31 06:39:32;;;;;;;11.77;8.03;;;;;;;14.62;45.49;97136.50;5116497;27;20419;-70
2021/03/31 06:42:13;;;;;;;9.70;7.60;;;;;;;14.74;46.91;97132.03;5117519;27;20418;-70
2021/03/31 06:47:18;;;;;;;11.07;7.90;;;;;;;14.96;48.15;97137.50;5116023;28;20429;-71
2021/03/31 06:49:43;;;;;;;11.77;7.83;;;;;;;14.99;49.08;97140.47;5124197;27;20451;-70
2021/03/31 06:52:11;;;;;;;10.13;7.60;;;;;;;15.07;49.74;97126.09;5116371;28;20841;-70
2021/03/31 06:54:45;;;;;;;9.60;8.40;;;;;;;15.11;50.17;97125.38;5128271;27;20196;-70
2021/03/31 06:57:13;;;;;;;11.00;7.90;;;;;;;15.12;47.77;97137.59;5135000;27;20406;-70
2021/03/31 06:59:42;;;;;;;10.20;8.10;;;;;;;15.18;47.88;97133.97;5136683;27;20464;-71
2021/03/31 07:02:07;;;;;;;14.20;7.67;;;;;;;15.23;45.84;97125.34;5136667;27;20949;-69
2021/03/31 07:04:34;;;;;;;9.37;7.77;;;;;;;15.33;46.08;97126.34;5134631;27;20398;-71
2021/03/31 07:07:06;;;;;;;12.13;9.27;;;;;;;15.42;47.54;97129.44;5115751;28;20252;-70
2021/03/31 07:09:32;;;;;;;10.20;7.93;;;;;;;15.50;48.05;97123.75;5131491;27;21024;-70
2021/03/31 07:11:58;;;;;;;8.13;6.93;;;;;;;15.56;48.40;97127.31;5136764;27;20486;-69
2021/03/31 07:14:24;;;;;;;15.03;8.83;;;;;;;15.62;49.07;97129.00;5136276;27;20628;-69
2021/03/31 07:16:53;;;;;;;10.70;8.10;;;;;;;15.69;49.39;97125.16;5136183;27;20624;-71
2021/03/31 07:19:19;;;;;;;9.27;7.17;;;;;;;15.74;48.58;97127.91;5132917;27;20426;-71
2021/03/31 07:21:44;;;;;;;8.40;6.83;;;;;;;15.78;47.67;97131.66;5131896;27;20423;-71
2021/03/31 07:24:13;;;;;;;9.47;7.30;;;;;;;15.86;46.05;97133.13;5115563;27;20498;-71
2021/03/31 07:26:40;;;;;;;11.00;7.70;;;;;;;15.90;44.29;97132.44;5136137;27;20201;-71
2021/03/31 07:29:06;;;;;;;11.97;8.07;;;;;;;15.97;43.20;97132.25;5135720;27;20453;-69
2021/03/31 07:31:32;;;;;;;11.73;8.77;;;;;;;15.99;42.98;97132.81;5136075;27;20430;-69
2021/03/31 07:34:19;;;;;;;12.53;8.83;;;;;;;15.99;42.22;97128.34;5135437;27;20406;-71
2021/03/31 07:36:48;;;;;;;11.97;8.67;;;;;;;16.20;42.27;97129.44;5131177;27;20418;-69
2021/03/31 07:39:15;;;;;;;8.70;7.53;;;;;;;16.30;42.27;97133.06;5133606;27;20591;-70
2021/03/31 07:41:42;;;;;;;11.17;8.60;;;;;;;16.38;41.64;97127.34;5129053;27;20423;-70
2021/03/31 07:44:13;;;;;;;13.07;9.03;;;;;;;16.50;41.74;97131.78;5115297;28;20411;-70
2021/03/31 07:46:42;;;;;;;10.07;7.87;;;;;;;16.57;41.65;97127.91;5116163;27;22266;-68
2021/03/31 07:49:09;;;;;;;11.30;8.87;;;;;;;16.49;42.29;97130.19;5123781;27;20481;-68
2021/03/31 07:51:34;;;;;;;11.63;9.50;;;;;;;16.36;40.50;97133.94;5130333;27;20924;-68
2021/03/31 07:54:03;;;;;;;10.97;8.90;;;;;;;16.62;40.67;97133.28;5156278;27;20406;-68
2021/03/31 07:56:31;;;;;;;10.00;9.00;;;;;;;16.83;40.46;97124.53;5156391;27;20192;-69
2021/03/31 07:59:03;;;;;;;11.80;8.33;;;;;;;16.75;39.03;97122.34;5155820;27;20990;-63
2021/03/31 08:01:48;;;;;;;17.13;8.80;;;;;;;16.54;37.81;97123.09;5134127;27;20500;-64
2021/03/31 08:04:15;;;;;;;11.57;8.53;;;;;;;16.43;38.50;97122.09;5131305;27;20446;-71
2021/03/31 08:06:42;;;;;;;12.43;9.03;;;;;;;16.33;37.89;97111.38;5135326;27;20457;-70
2021/03/31 08:09:11;;;;;;;11.93;9.07;;;;;;;16.66;38.38;97117.69;5134843;27;20535;-70
2021/03/31 08:11:36;;;;;;;16.90;8.40;;;;;;;16.72;37.37;97122.03;5131431;27;20438;-70
2021/03/31 08:14:07;;;;;;;10.97;8.53;;;;;;;16.71;37.23;97131.00;5135294;27;20490;-71
2021/03/31 08:16:37;;;;;;;10.40;7.40;;;;;;;16.97;36.99;97122.34;5121470;27;20177;-71
2021/03/31 08:19:13;;;;;;;12.70;9.87;;;;;;;17.13;36.88;97121.47;5114274;28;20415;-63
2021/03/31 08:21:39;;;;;;;10.77;8.20;;;;;;;17.36;36.19;97124.66;5114644;28;20395;-63
2021/03/31 08:24:05;;;;;;;10.57;7.93;;;;;;;17.56;35.85;97126.75;5114733;28;20845;-71
2021/03/31 08:26:55;;;;;;;12.50;8.70;;;;;;;17.79;35.25;97123.00;5123080;27;20928;-70
2021/03/31 08:29:21;;;;;;;10.57;9.10;;;;;;;17.84;35.66;97126.53;5128198;27;20439;-63
2021/03/31 08:31:54;;;;;;;9.93;8.20;;;;;;;18.10;35.21;97124.88;5114329;28;20399;-70
2021/03/31 08:34:21;;;;;;;12.00;9.00;;;;;;;18.33;35.34;97125.31;5114010;28;20166;-70
2021/03/31 08:36:47;;;;;;;9.90;8.10;;;;;;;18.65;34.84;97119.16;5110310;28;20414;-64
2021/03/31 08:39:13;;;;;;;11.50;8.97;;;;;;;18.62;34.65;97117.00;5110016;28;20435;-65
2021/03/31 08:41:41;;;;;;;12.10;8.70;;;;;;;18.68;34.21;97114.13;5123356;27;20222;-64
2021/03/31 08:44:32;;;;;;;10.30;8.83;;;;;;;18.37;34.08;97121.06;5130743;27;20421;-68
2021/03/31 08:47:14;;;;;;;14.63;9.47;;;;;;;18.34;34.85;97112.81;5123502;27;20824;-65
2021/03/31 08:49:41;;;;;;;13.90;10.20;;;;;;;18.37;34.32;97117.63;5124611;27;20558;-68
2021/03/31 08:52:11;;;;;;;10.70;8.87;;;;;;;18.35;34.58;97111.75;5130934;27;20421;-68
2021/03/31 08:54:52;;;;;;;13.03;8.90;;;;;;;18.72;33.40;97109.88;5120054;27;20442;-68
2021/03/31 08:57:23;;;;;;;15.97;9.77;;;;;;;18.79;33.67;97109.66;5130483;27;21140;-68
2021/03/31 08:59:51;;;;;;;11.80;8.03;;;;;;;18.88;33.27;97108.13;5130242;27;20438;-68
2021/03/31 09:02:19;;;;;;;10.80;8.67;;;;;;;19.10;33.06;97111.38;5130780;27;20526;-68
2021/03/31 09:04:45;;;;;;;10.50;8.37;;;;;;;19.09;32.64;97110.59;5130671;27;20445;-68
2021/03/31 09:07:12;;;;;;;10.87;7.80;;;;;;;19.45;32.62;97106.22;5122974;27;20515;-68
2021/03/31 09:09:39;;;;;;;11.63;8.20;;;;;;;19.63;31.55;97103.03;5112379;28;20610;-68
2021/03/31 09:12:10;;;;;;;12.97;9.00;;;;;;;19.81;31.79;97101.72;5119550;27;20503;-67
2021/03/31 09:14:39;;;;;;;10.90;8.30;;;;;;;19.96;31.41;97097.22;5125059;28;20410;-68
2021/03/31 09:17:07;;;;;;;10.63;8.00;;;;;;;19.88;32.39;97095.06;5127367;28;21015;-68
2021/03/31 09:19:39;;;;;;;10.60;7.83;;;;;;;19.88;30.67;97091.59;5110067;28;20434;-68
2021/03/31 09:22:10;;;;;;;9.03;7.70;;;;;;;20.04;30.17;97091.31;5108756;28;20438;-68
2021/03/31 09:24:39;;;;;;;8.00;7.20;;;;;;;20.25;30.32;97092.97;5109502;28;21107;-68
2021/03/31 09:27:07;;;;;;;8.57;7.50;;;;;;;20.39;30.74;97085.19;5119215;28;20790;-68
2021/03/31 09:29:34;;;;;;;9.47;7.40;;;;;;;20.45;29.50;97086.78;5126276;27;20446;-68
2021/03/31 09:32:01;;;;;;;9.10;7.10;;;;;;;20.99;30.30;97082.38;5110110;28;20816;-68
2021/03/31 09:34:27;;;;;;;9.73;6.80;;;;;;;21.10;29.48;97089.28;5109924;28;20633;-68
2021/03/31 09:37:07;;;;;;;8.83;6.43;;;;;;;21.20;29.20;97086.56;5109119;28;20418;-68
2021/03/31 09:39:38;;;;;;;8.70;7.37;;;;;;;21.33;28.70;97082.50;5112366;28;20192;-68
2021/03/31 09:42:05;;;;;;;12.63;8.30;;;;;;;21.61;28.21;97081.00;5130412;27;20413;-68
2021/03/31 09:44:32;;;;;;;9.07;7.90;;;;;;;21.72;27.71;97077.19;5130281;27;20936;-68
2021/03/31 09:46:59;;;;;;;9.13;8.13;;;;;;;21.49;27.97;97082.13;5114811;27;20434;-68
2021/03/31 09:49:26;;;;;;;10.27;7.30;;;;;;;21.52;28.56;97069.28;5110269;28;20887;-68
2021/03/31 09:51:51;;;;;;;7.93;7.20;;;;;;;22.03;28.52;97076.69;5109787;28;20407;-68
2021/03/31 09:54:17;;;;;;;8.10;6.90;;;;;;;22.05;26.99;97071.84;5124239;28;20422;-68
2021/03/31 09:56:43;;;;;;;10.80;8.47;;;;;;;22.06;26.88;97061.94;5132118;27;20176;-68
2021/03/31 09:59:10;;;;;;;11.17;8.70;;;;;;;22.29;27.08;97064.69;5131140;27;20199;-69
2021/03/31 10:01:36;;;;;;;11.10;8.63;;;;;;;22.42;26.71;97058.66;5134145;27;20406;-67
2021/03/31 10:04:03;;;;;;;8.57;7.23;;;;;;;22.41;25.99;97051.69;5133125;27;20422;-66
2021/03/31 10:06:28;;;;;;;8.60;7.60;;;;;;;22.88;28.62;97058.97;5133853;27;20450;-70
2021/03/31 10:08:54;;;;;;;9.33;7.23;;;;;;;23.12;31.13;97048.22;5116885;27;20450;-66
2021/03/31 10:11:35;;;;;;;9.70;7.37;;;;;;;23.36;31.45;97051.69;5113150;28;20166;-64
2021/03/31 10:14:02;;;;;;;10.33;6.67;;;;;;;23.43;32.47;97052.13;5113950;27;20165;-69
2021/03/31 10:16:46;;;;;;;12.07;7.80;;;;;;;23.60;31.28;97046.25;5126963;27;20418;-69
2021/03/31 10:19:13;;;;;;;10.43;6.60;;;;;;;23.67;30.99;97041.28;5127958;27;20464;-70
2021/03/31 10:21:38;;;;;;;10.23;6.80;;;;;;;23.93;29.96;97037.13;5116936;27;20913;-68
2021/03/31 10:24:05;;;;;;;11.57;8.10;;;;;;;23.42;27.34;97042.47;5122919;27;20429;-68
2021/03/31 10:26:33;;;;;;;11.23;7.93;;;;;;;23.34;27.77;97037.75;5133649;27;20197;-67
2021/03/31 10:29:01;;;;;;;10.23;7.10;;;;;;;23.29;28.63;97035.16;5133256;27;20446;-63
2021/03/31 10:31:39;;;;;;;6.87;6.03;;;;;;;23.71;31.50;97039.63;5133495;27;20489;-63
2021/03/31 10:34:06;;;;;;;7.43;6.37;;;;;;;24.16;29.29;97033.53;5133592;27;20909;-66
2021/03/31 10:36:52;;;;;;;8.87;6.97;;;;;;;24.30;31.05;97032.47;5121489;27;20430;-67
2021/03/31 10:53:41;;;;;;;12.23;8.00;;;;;;;24.65;31.46;97020.25;5124104;27;20517;-64
2021/03/31 10:56:07;;;;;;;11.73;8.73;;;;;;;24.84;30.38;97025.56;5120637;27;20403;-63
2021/03/31 10:58:32;;;;;;;11.63;8.00;;;;;;;25.08;30.97;97018.06;5115482;28;21018;-63
2021/03/31 11:00:57;;;;;;;13.93;8.07;;;;;;;25.15;30.17;97018.44;5116952;27;20193;-67
2021/03/31 11:03:24;;;;;;;11.30;9.10;;;;;;;25.29;29.86;97016.53;5126159;27;20211;-63
2021/03/31 11:05:50;;;;;;;11.33;8.90;;;;;;;25.37;29.69;97013.09;5116328;27;20561;-63
2021/03/31 11:08:16;;;;;;;11.30;7.80;;;;;;;25.43;29.85;97015.44;5127361;27;20783;-63
2021/03/31 11:10:41;;;;;;;19.13;8.87;;;;;;;25.43;28.09;97010.03;5134375;27;20529;-63
2021/03/31 11:13:07;;;;;;;10.70;8.53;;;;;;;25.69;29.40;97004.06;5136246;27;20252;-67
2021/03/31 11:15:33;;;;;;;10.10;7.80;;;;;;;25.54;30.45;96994.44;5135355;27;20294;-63
2021/03/31 11:25:59;;;;;;;12.83;8.80;;;;;;;25.96;27.53;96995.84;5132460;27;20994;-70
2021/03/31 11:28:26;;;;;;;11.37;10.23;;;;;;;26.12;28.07;96991.69;5115464;27;20438;-70
2021/03/31 11:30:53;;;;;;;11.27;9.00;;;;;;;26.19;28.57;96986.66;5111447;28;20412;-70
2021/03/31 11:33:21;;;;;;;10.83;9.70;;;;;;;26.47;28.02;96987.25;5123424;27;20949;-70
2021/03/31 11:35:47;;;;;;;14.93;9.60;;;;;;;26.78;27.03;96983.41;5132404;27;20526;-70
2021/03/31 11:38:14;;;;;;;22.13;10.43;;;;;;;26.25;28.28;96988.09;5131957;27;20509;-69
2021/03/31 11:40:39;;;;;;;12.13;10.20;;;;;;;26.45;27.35;96984.88;5130672;27;20409;-70
2021/03/31 11:43:07;;;;;;;11.13;9.87;;;;;;;26.52;27.69;96982.50;5130023;27;20422;-70
2021/03/31 11:45:32;;;;;;;13.37;10.00;;;;;;;26.68;27.86;96978.31;5131390;27;20619;-71
2021/03/31 11:47:57;;;;;;;12.80;11.50;;;;;;;26.59;27.77;96971.25;5131599;27;20422;-70
2021/03/31 11:50:25;;;;;;;13.40;10.63;;;;;;;26.97;26.75;96962.34;5125656;27;20212;-70
2021/03/31 11:52:52;;;;;;;12.23;10.87;;;;;;;27.17;25.20;96961.75;5110062;27;20181;-70
2021/03/31 11:55:18;;;;;;;12.90;9.77;;;;;;;27.16;27.05;96956.63;5114022;28;20462;-69
2021/03/31 11:57:43;;;;;;;15.33;10.60;;;;;;;27.31;26.22;96954.31;5115617;27;20427;-69